createdAt,value
2024-03-12T00:00:45.110Z,8.18
2024-03-12T00:03:13.792Z,8.18
2024-03-12T00:05:42.783Z,8.18
2024-03-12T00:08:11.191Z,8.16
2024-03-12T00:10:40.091Z,8.22
2024-03-12T00:13:11.009Z,8.25
2024-03-12T00:15:39.488Z,8.18
2024-03-12T00:18:09.944Z,8.23
2024-03-12T00:20:40.670Z,8.15
2024-03-12T00:23:09.999Z,8.10
2024-03-12T00:25:38.675Z,8.03
2024-03-12T00:28:10.114Z,7.98
2024-03-12T00:30:42.638Z,7.94
2024-03-12T00:33:13.085Z,7.87
2024-03-12T00:35:45.052Z,7.75
2024-03-12T00:38:13.776Z,7.71
2024-03-12T00:40:44.096Z,7.61
2024-03-12T00:43:13.337Z,7.59
2024-03-12T00:45:43.186Z,7.60
2024-03-12T00:48:15.313Z,7.57
2024-03-12T00:50:46.736Z,7.61
2024-03-12T00:53:15.845Z,7.56
2024-03-12T00:55:48.911Z,7.54
2024-03-12T00:58:21.407Z,7.60
2024-03-12T01:00:53.358Z,7.69
2024-03-12T01:03:25.444Z,7.74
2024-03-12T01:05:55.195Z,7.71
2024-03-12T01:08:24.986Z,7.68
2024-03-12T01:10:53.683Z,7.70
2024-03-12T01:13:22.337Z,7.71
2024-03-12T01:15:54.169Z,7.66
2024-03-12T01:18:24.955Z,7.59
2024-03-12T01:20:53.508Z,7.57
2024-03-12T01:23:21.961Z,7.58
2024-03-12T01:25:50.353Z,7.60
2024-03-12T01:28:19.104Z,7.59
2024-03-12T01:30:47.704Z,7.65
2024-03-12T01:33:16.161Z,7.72
2024-03-12T01:35:48.206Z,7.83
2024-03-12T01:38:16.769Z,7.78
2024-03-12T01:40:45.352Z,7.83
2024-03-12T01:43:14.290Z,7.77
2024-03-12T01:45:44.079Z,7.70
2024-03-12T01:48:13.606Z,7.72
2024-03-12T01:50:42.445Z,7.71
2024-03-12T01:53:12.759Z,7.72
2024-03-12T01:55:44.985Z,7.71
2024-03-12T01:58:16.753Z,7.66
2024-03-12T02:00:47.118Z,7.60
2024-03-12T02:03:16.353Z,7.73
2024-03-12T02:05:44.836Z,7.78
2024-03-12T02:08:16.483Z,7.91
2024-03-12T02:10:45.092Z,7.91
2024-03-12T02:13:14.647Z,7.94
2024-03-12T02:15:44.491Z,7.97
2024-03-12T02:18:13.060Z,7.97
2024-03-12T02:20:41.519Z,7.96
2024-03-12T02:23:09.883Z,7.98
2024-03-12T02:25:39.786Z,8.00
2024-03-12T02:28:08.399Z,8.02
2024-03-12T02:30:37.190Z,7.99
2024-03-12T02:33:05.791Z,8.01
2024-03-12T02:35:36.170Z,8.05
2024-03-12T02:38:04.669Z,8.15
2024-03-12T02:40:33.151Z,8.17
2024-03-12T02:43:03.071Z,8.15
2024-03-12T02:45:31.563Z,8.24
2024-03-12T02:47:59.955Z,8.30
2024-03-12T02:50:31.038Z,8.32
2024-03-12T02:52:59.710Z,8.30
2024-03-12T02:55:29.109Z,8.34
2024-03-12T02:57:57.583Z,8.29
2024-03-12T03:00:27.451Z,8.27
2024-03-12T03:02:56.332Z,8.23
2024-03-12T03:05:25.618Z,8.27
2024-03-12T03:07:54.153Z,8.26
2024-03-12T03:10:22.802Z,8.23
2024-03-12T03:12:51.947Z,8.23
2024-03-12T03:15:22.169Z,8.28
2024-03-12T03:17:51.986Z,8.38
2024-03-12T03:20:20.589Z,8.34
2024-03-12T03:22:49.003Z,8.47
2024-03-12T03:25:17.936Z,8.44
2024-03-12T03:27:46.352Z,8.50
2024-03-12T03:30:19.835Z,8.54
2024-03-12T03:32:49.771Z,8.55
2024-03-12T03:35:20.656Z,8.46
2024-03-12T03:37:49.706Z,8.45
2024-03-12T03:40:24.979Z,8.45
2024-03-12T03:42:57.566Z,8.38
2024-03-12T03:45:26.359Z,8.39
2024-03-12T03:47:54.860Z,8.41
2024-03-12T03:50:24.686Z,8.40
2024-03-12T03:52:54.347Z,8.37
2024-03-12T03:55:23.401Z,8.40
2024-03-12T03:57:52.139Z,8.36
2024-03-12T04:00:24.805Z,8.36
2024-03-12T04:02:53.360Z,8.29
2024-03-12T04:05:22.514Z,8.25
2024-03-12T04:07:52.406Z,8.23
2024-03-12T04:10:20.768Z,8.27
2024-03-12T04:12:49.851Z,8.28
2024-03-12T04:15:19.519Z,8.32
2024-03-12T04:17:48.020Z,8.32
2024-03-12T04:20:18.523Z,8.30
2024-03-12T04:22:47.548Z,8.26
2024-03-12T04:25:18.900Z,8.24
2024-03-12T04:27:48.006Z,8.26
2024-03-12T04:30:16.436Z,8.26
2024-03-12T04:32:46.141Z,8.23
2024-03-12T04:35:14.868Z,8.21
2024-03-12T04:37:43.582Z,8.17
2024-03-12T04:40:13.137Z,8.19
2024-03-12T04:42:46.918Z,8.24
2024-03-12T04:45:15.887Z,8.28
2024-03-12T04:47:44.344Z,8.28
2024-03-12T04:50:15.772Z,8.28
2024-03-12T04:52:44.306Z,8.23
2024-03-12T04:55:14.307Z,8.42
2024-03-12T04:57:44.770Z,8.48
2024-03-12T05:00:20.195Z,8.37
2024-03-12T05:02:49.702Z,8.26
2024-03-12T05:05:20.607Z,8.23
2024-03-12T05:07:49.397Z,8.23
2024-03-12T05:10:18.559Z,8.20
2024-03-12T05:12:48.436Z,8.19
2024-03-12T05:15:18.923Z,8.20
2024-03-12T05:17:50.016Z,8.25
2024-03-12T05:20:24.051Z,8.27
2024-03-12T05:22:52.544Z,8.31
2024-03-12T05:25:28.327Z,8.37
2024-03-12T05:27:59.350Z,8.39
2024-03-12T05:30:27.747Z,8.34
2024-03-12T05:32:57.418Z,8.36
2024-03-12T05:35:31.329Z,8.43
2024-03-12T05:38:12.246Z,8.49
2024-03-12T05:40:48.221Z,8.59
2024-03-12T05:43:35.301Z,8.64
2024-03-12T05:46:21.162Z,8.70
2024-03-12T05:48:51.790Z,8.72
2024-03-12T05:51:21.263Z,8.71
2024-03-12T05:53:50.179Z,8.61
2024-03-12T05:56:21.131Z,8.55
2024-03-12T05:58:51.475Z,8.52
2024-03-12T06:01:20.257Z,8.57
2024-03-12T06:03:48.772Z,8.59
2024-03-12T06:06:19.081Z,8.55
2024-03-12T06:08:47.594Z,8.52
2024-03-12T06:11:18.096Z,8.49
2024-03-12T06:13:46.550Z,8.48
2024-03-12T06:16:19.848Z,8.42
2024-03-12T06:18:48.514Z,8.38
2024-03-12T06:21:17.640Z,8.36
2024-03-12T06:23:46.791Z,8.34
2024-03-12T06:26:15.072Z,8.39
2024-03-12T06:28:44.014Z,8.45
2024-03-12T06:31:13.074Z,8.55
2024-03-12T06:33:44.340Z,8.62
2024-03-12T06:36:16.892Z,8.68
2024-03-12T06:38:48.166Z,8.68
2024-03-12T06:41:16.516Z,8.75
2024-03-12T06:43:44.963Z,8.84
2024-03-12T06:46:20.267Z,8.89
2024-03-12T06:48:50.759Z,8.96
2024-03-12T06:51:19.321Z,9.03
2024-03-12T06:53:47.631Z,9.07
2024-03-12T06:56:18.534Z,9.14
2024-03-12T06:58:47.531Z,9.15
2024-03-12T07:01:16.616Z,9.23
2024-03-12T07:03:47.157Z,9.29
2024-03-12T07:06:18.225Z,9.28
2024-03-12T07:08:47.252Z,9.33
2024-03-12T07:11:18.516Z,9.37
2024-03-12T07:13:50.389Z,9.33
2024-03-12T07:16:18.999Z,9.41
2024-03-12T07:18:47.951Z,9.39
2024-03-12T07:21:17.873Z,9.50
2024-03-12T07:23:46.176Z,9.55
2024-03-12T07:26:14.878Z,9.57
2024-03-12T07:28:44.129Z,9.44
2024-03-12T07:31:12.699Z,9.42
2024-03-12T07:33:41.508Z,9.36
2024-03-12T07:36:11.763Z,9.32
2024-03-12T07:38:41.599Z,9.42
2024-03-12T07:41:10.409Z,9.46
2024-03-12T07:43:38.937Z,9.53
2024-03-12T07:46:08.800Z,9.53
2024-03-12T07:48:38.315Z,9.61
2024-03-12T07:51:10.726Z,9.54
2024-03-12T07:53:40.961Z,9.58
2024-03-12T07:56:12.753Z,9.59
2024-03-12T07:58:42.095Z,9.51
2024-03-12T08:01:10.782Z,9.46
2024-03-12T08:03:43.574Z,9.34
2024-03-12T08:06:11.960Z,9.19
2024-03-12T08:08:43.169Z,9.14
2024-03-12T08:11:11.876Z,9.04
2024-03-12T08:13:40.250Z,9.05
2024-03-12T08:16:09.352Z,9.12
2024-03-12T08:18:37.806Z,9.24
2024-03-12T08:21:06.621Z,9.30
2024-03-12T08:23:35.536Z,9.34
2024-03-12T08:26:06.719Z,9.41
2024-03-12T08:28:35.275Z,9.48
2024-03-12T08:31:10.948Z,9.53
2024-03-12T08:33:43.149Z,9.52
2024-03-12T08:36:12.572Z,9.57
2024-03-12T08:38:40.917Z,9.68
2024-03-12T08:41:11.459Z,9.70
2024-03-12T08:43:40.159Z,9.41
2024-03-12T12:40:18.962Z,11.99
2024-03-12T12:46:28.405Z,10.91
2024-03-12T12:52:37.371Z,11.29
2024-03-12T12:58:48.800Z,11.51
2024-03-12T13:04:58.208Z,11.35
2024-03-12T13:11:07.297Z,11.32
2024-03-12T13:17:17.791Z,11.53
2024-03-12T13:23:26.764Z,11.79
2024-03-12T13:29:35.661Z,11.39
2024-03-12T13:41:30.513Z,11.06
2024-03-12T13:48:06.495Z,11.45
2024-03-12T13:54:21.584Z,11.53
2024-03-12T14:04:30.136Z,11.17
2024-03-12T14:22:02.764Z,11.12
2024-03-12T14:28:18.423Z,10.96
2024-03-12T14:39:22.695Z,10.63
2024-03-12T14:45:47.679Z,10.38
2024-03-12T14:51:58.126Z,10.14
2024-03-12T14:58:09.382Z,9.98
2024-03-12T15:04:19.913Z,9.80
2024-03-12T15:18:03.781Z,9.40
2024-03-12T15:28:00.818Z,9.14
2024-03-12T15:34:16.352Z,9.07
2024-03-12T15:40:37.512Z,8.97
2024-03-12T15:46:57.429Z,8.85
2024-03-12T16:04:15.839Z,8.65
2024-03-12T16:14:18.492Z,8.49
2024-03-12T16:20:29.222Z,8.61
2024-03-12T16:26:38.824Z,8.53
2024-03-12T16:36:37.283Z,8.60
2024-03-12T16:42:59.402Z,8.59
2024-03-12T16:49:15.431Z,8.55
2024-03-12T16:55:33.664Z,8.33
2024-03-12T17:01:50.056Z,8.34
2024-03-12T17:08:21.153Z,8.40
2024-03-12T17:14:39.677Z,8.27
2024-03-12T17:20:58.661Z,8.24
2024-03-12T17:31:04.218Z,8.21
2024-03-12T17:45:01.901Z,8.37
2024-03-12T17:51:19.471Z,8.57
2024-03-12T17:57:39.541Z,8.49
2024-03-12T18:07:46.003Z,8.10
2024-03-12T18:13:55.887Z,8.01
2024-03-12T18:46:01.955Z,8.40
2024-03-12T18:52:18.049Z,8.33
2024-03-12T18:58:34.105Z,8.37
2024-03-12T19:04:52.682Z,8.31
2024-03-12T19:11:11.646Z,8.33
2024-03-12T19:17:31.110Z,8.24
2024-03-12T19:27:36.348Z,8.03
2024-03-12T19:37:35.714Z,7.95
2024-03-12T19:47:53.890Z,7.91
2024-03-12T19:54:06.728Z,7.78
2024-03-12T20:00:19.997Z,7.86
2024-03-12T20:06:48.540Z,7.94
2024-03-12T20:12:57.378Z,8.06
2024-03-12T20:22:55.175Z,8.25
2024-03-12T20:33:00.069Z,8.20
2024-03-12T20:43:58.901Z,8.11
2024-03-12T20:54:27.633Z,8.04
2024-03-12T21:04:23.401Z,7.83
2024-03-12T21:10:44.671Z,7.96
2024-03-12T21:17:03.983Z,7.97
2024-03-12T21:23:18.989Z,7.96
2024-03-12T21:29:35.710Z,8.03
2024-03-12T21:35:51.595Z,7.99
2024-03-12T21:46:33.963Z,7.83
2024-03-12T21:52:49.549Z,7.79
2024-03-12T21:59:05.814Z,7.79
2024-03-12T22:05:35.592Z,8.01
2024-03-12T22:11:51.478Z,8.23
2024-03-12T22:18:07.716Z,8.27
2024-03-12T22:28:11.411Z,8.19
2024-03-12T22:34:36.087Z,8.26
2024-03-12T22:48:49.596Z,8.12
2024-03-12T22:55:14.035Z,8.21
2024-03-12T23:08:57.815Z,8.56
2024-03-12T23:18:55.196Z,8.83
2024-03-12T23:25:11.872Z,8.81
2024-03-12T23:31:27.665Z,8.76
2024-03-12T23:37:44.684Z,8.68
2024-03-12T23:49:24.358Z,8.99
2024-03-12T23:55:53.677Z,9.14
